Time;durP1;ratioP1;P1;durP2;ratioP2;P2;SDS_P1;SDS_P2;PMS_P1;PMS_P2;Temp;Humidity;BMP_temperature;BMP_pressure;BME280_temperature;BME280_humidity;BME280_pressure;Samples;Min_cycle;Max_cycle;Signal;HPM_P1;HPM_P2
2022/07/18 00:02:18;;;;;;;;;19.33;18.33;;;;;25.56;36.97;101669.97;5030190;28;45546;-80
2022/07/18 00:04:55;;;;;;;;;18.33;17.67;;;;;25.37;36.89;101639.72;5005205;28;45654;-81
2022/07/18 00:07:24;;;;;;;;;21.67;18.67;;;;;25.60;37.10;101685.13;5013691;28;45403;-85
2022/07/18 00:09:53;;;;;;;;;25.33;22.00;;;;;25.59;37.09;101693.84;5007929;28;47090;-83
2022/07/18 00:12:19;;;;;;;;;32.67;25.33;;;;;25.12;37.54;101617.31;5002054;28;45806;-84
2022/07/18 00:15:06;;;;;;;;;33.33;28.67;;;;;25.54;37.43;101687.09;5011363;28;45503;-87
2022/07/18 00:17:38;;;;;;;;;32.00;24.67;;;;;25.52;37.56;101675.31;5009713;28;45387;-85
2022/07/18 00:20:09;;;;;;;;;24.00;21.33;;;;;25.49;37.74;101684.28;5023333;28;45497;-87
2022/07/18 00:22:37;;;;;;;;;25.67;23.00;;;;;25.46;37.50;101679.25;5019370;28;45646;-85
2022/07/18 00:25:28;;;;;;;;;32.33;26.33;;;;;25.43;37.70;101674.22;5013938;28;45491;-85
2022/07/18 00:28:05;;;;;;;;;21.33;16.33;;;;;25.30;37.82;101674.81;5005005;28;46031;-82
2022/07/18 00:30:37;;;;;;;;;17.33;15.33;;;;;25.34;38.18;101689.97;5009251;28;46554;-84
2022/07/18 00:33:06;;;;;;;;;28.67;25.00;;;;;25.16;38.65;101664.16;5019379;28;45464;-83
2022/07/18 00:35:35;;;;;;;;;29.67;27.00;;;;;25.20;38.58;101670.06;5024185;28;45585;-84
2022/07/18 00:38:06;;;;;;;;;28.33;22.00;;;;;24.90;39.11;101615.69;5015307;28;45522;-84
2022/07/18 00:40:32;;;;;;;;;24.67;23.00;;;;;25.13;39.21;101659.13;5018085;28;46651;-83
2022/07/18 00:43:01;;;;;;;;;20.33;20.00;;;;;25.13;39.26;101661.94;5020284;28;46092;-86
2022/07/18 00:45:27;;;;;;;;;27.33;23.33;;;;;25.11;39.53;101667.00;5018279;28;45442;-82
2022/07/18 00:47:56;;;;;;;;;18.00;16.33;;;;;24.88;39.61;101628.31;5009657;28;45682;-81
2022/07/18 00:50:34;;;;;;;;;17.33;16.33;;;;;25.16;39.84;101680.19;5000581;28;45770;-82
2022/07/18 00:53:10;;;;;;;;;20.33;17.67;;;;;25.14;40.06;101676.81;5014329;28;45574;-82
2022/07/18 00:56:11;;;;;;;;;19.33;17.67;;;;;25.09;40.43;101677.69;5000531;28;45700;-81
2022/07/18 00:58:50;;;;;;;;;18.00;12.33;;;;;24.68;40.49;101613.22;5003436;28;45837;-80
2022/07/18 01:01:46;;;;;;;;;20.33;15.67;;;;;24.83;40.68;101638.44;5009643;28;45885;-82
2022/07/18 01:04:35;;;;;;;;;20.00;18.33;;;;;24.81;40.89;101640.69;5007021;28;45775;-82
2022/07/18 01:07:14;;;;;;;;;16.00;15.00;;;;;24.84;41.45;101659.75;5006710;28;45531;-82
2022/07/18 01:09:39;;;;;;;;;20.67;16.67;;;;;24.90;41.51;101665.38;5010287;28;45523;-81
2022/07/18 01:12:10;;;;;;;;;22.67;21.00;;;;;24.88;41.75;101673.22;5012325;28;48099;-81
2022/07/18 01:14:47;;;;;;;;;23.33;16.00;;;;;24.46;42.17;101610.69;5012954;28;45869;-81
2022/07/18 01:17:23;;;;;;;;;19.67;17.00;;;;;24.52;42.33;101617.13;5003856;28;45758;-80
2022/07/18 01:20:02;;;;;;;;;23.33;21.33;;;;;24.65;42.82;101653.06;5012768;28;45541;-81
2022/07/18 01:22:41;;;;;;;;;22.67;20.67;;;;;24.41;43.17;101628.34;5023527;28;46635;-81
2022/07/18 01:25:08;;;;;;;;;23.00;19.67;;;;;24.30;43.99;101619.09;5001622;28;45534;-82
2022/07/18 01:27:39;;;;;;;;;22.67;20.33;;;;;24.45;44.61;101657.53;5025566;28;45585;-83
2022/07/18 01:30:14;;;;;;;;;31.33;23.00;;;;;24.57;45.37;101678.84;5036544;28;45607;-87
2022/07/18 01:32:56;;;;;;;;;;;;;;;;;;;;;
2022/07/18 01:35:35;;;;;;;;;25.33;23.33;;;;;24.49;45.64;101674.59;5036385;28;71378;-84
2022/07/18 01:38:23;;;;;;;;;22.67;22.33;;;;;24.28;45.91;101642.94;5018555;28;45763;-85
2022/07/18 01:40:52;;;;;;;;;21.33;19.67;;;;;24.18;46.44;101628.91;5023458;28;45683;-85
2022/07/18 01:43:21;;;;;;;;;21.67;20.33;;;;;23.93;46.95;101585.75;5024469;28;47623;-82
2022/07/18 01:45:47;;;;;;;;;21.67;20.33;;;;;24.37;46.12;101663.69;5016850;28;45800;-83
2022/07/18 01:48:36;;;;;;;;;20.00;16.33;;;;;23.99;46.09;101607.03;5024286;28;45443;-83
2022/07/18 01:51:09;;;;;;;;;20.00;17.00;;;;;24.05;46.50;101624.72;5021997;28;45628;-82
2022/07/18 01:53:45;;;;;;;;;23.33;19.00;;;;;24.19;46.38;101644.59;5016535;28;45896;-84
2022/07/18 01:56:17;;;;;;;;;24.00;22.33;;;;;24.26;46.67;101645.19;5023365;28;45391;-84
2022/07/18 01:58:49;;;;;;;;;12.00;10.67;;;;;23.99;46.25;101604.25;5019041;28;45427;-83
2022/07/18 02:01:19;;;;;;;;;20.67;17.33;;;;;24.18;46.01;101634.50;5017354;28;45181;-85
2022/07/18 02:03:46;;;;;;;;;15.67;15.33;;;;;23.86;45.91;101583.19;5027939;28;46493;-81
2022/07/18 02:06:34;;;;;;;;;12.67;11.67;;;;;24.06;45.67;101618.81;5011222;28;45587;-85
2022/07/18 02:09:00;;;;;;;;;17.00;14.33;;;;;24.17;46.06;101647.69;5013575;28;45388;-86
2022/07/18 02:11:32;;;;;;;;;20.00;15.33;;;;;24.15;46.49;101638.72;5027231;28;45460;-85
2022/07/18 02:14:04;;;;;;;;;28.33;20.67;;;;;23.62;46.84;101564.13;5017246;28;47992;-83
2022/07/18 02:16:35;;;;;;;;;22.00;20.00;;;;;23.71;47.65;101584.00;5018313;28;45618;-83
2022/07/18 02:19:10;;;;;;;;;24.33;22.33;;;;;24.06;47.91;101649.66;5017218;28;45518;-82
2022/07/18 02:21:38;;;;;;;;;27.00;25.67;;;;;23.94;47.95;101632.25;5030761;28;46268;-80
2022/07/18 02:24:07;;;;;;;;;26.33;26.33;;;;;23.99;48.24;101642.63;5019277;28;45605;-83
2022/07/18 02:26:35;;;;;;;;;23.33;23.33;;;;;23.65;48.90;101596.31;5018788;28;45525;-85
2022/07/18 02:29:03;;;;;;;;;31.33;28.33;;;;;23.81;49.40;101628.00;5033381;28;44852;-82
2022/07/18 02:31:32;;;;;;;;;32.00;30.67;;;;;23.87;49.88;101640.09;5033725;28;45640;-82
2022/07/18 02:34:11;;;;;;;;;37.67;33.33;;;;;23.83;50.74;101636.13;5019329;28;46214;-82
2022/07/18 02:36:43;;;;;;;;;37.33;32.67;;;;;23.51;50.92;101595.16;5011276;28;45525;-82
2022/07/18 02:39:10;;;;;;;;;33.33;31.00;;;;;23.73;51.56;101640.59;5023500;28;45685;-83
2022/07/18 02:41:39;;;;;;;;;41.33;34.33;;;;;23.59;51.54;101628.22;5028200;28;46013;-82
2022/07/18 02:44:05;;;;;;;;;33.00;30.33;;;;;23.57;52.79;101630.44;5029761;28;46687;-77
2022/07/18 02:46:30;;;;;;;;;23.67;19.00;;;;;23.36;52.98;101607.97;5015184;28;45601;-80
2022/07/18 02:49:02;;;;;;;;;22.33;22.33;;;;;23.53;53.61;101635.75;5011265;28;45353;-80
2022/07/18 02:51:29;;;;;;;;;33.67;29.67;;;;;23.47;53.97;101638.81;5016449;28;45815;-80
2022/07/18 02:53:59;;;;;;;;;29.33;27.00;;;;;23.49;54.80;101648.63;5013220;28;46389;-80
2022/07/18 02:56:28;;;;;;;;;27.33;22.33;;;;;23.37;55.73;101645.19;5015017;28;45751;-80
2022/07/18 02:58:55;;;;;;;;;26.33;19.67;;;;;23.41;56.75;101657.53;5018714;28;45400;-84
2022/07/18 03:01:42;;;;;;;;;23.67;18.33;;;;;23.37;57.51;101662.00;5015974;28;45562;-81
2022/07/18 03:04:12;;;;;;;;;23.00;20.33;;;;;23.34;57.81;101654.16;5013699;28;46428;-84
2022/07/18 03:06:38;;;;;;;;;21.33;19.33;;;;;23.31;57.90;101655.56;5030519;28;45916;-81
2022/07/18 03:09:06;;;;;;;;;23.00;21.33;;;;;23.27;58.13;101658.03;5023392;28;45471;-82
2022/07/18 03:11:32;;;;;;;;;26.00;23.33;;;;;22.78;58.10;101579.13;5014619;28;46415;-83
2022/07/18 03:14:07;;;;;;;;;19.67;16.33;;;;;23.23;57.68;101650.47;5015910;28;45646;-84
2022/07/18 03:16:34;;;;;;;;;16.00;13.00;;;;;23.02;56.76;101605.56;5011938;28;45484;-84
2022/07/18 03:19:08;;;;;;;;;15.00;12.33;;;;;23.09;56.94;101617.38;5016028;28;45732;-83
2022/07/18 03:21:58;;;;;;;;;13.67;13.67;;;;;23.18;56.12;101642.06;5013485;28;46055;-80
2022/07/18 03:24:25;;;;;;;;;18.33;16.33;;;;;23.16;57.08;101639.53;5013635;28;45785;-82
2022/07/18 03:27:01;;;;;;;;;24.33;22.00;;;;;23.16;58.08;101641.47;5014893;28;45534;-83
2022/07/18 03:29:35;;;;;;;;;22.67;18.33;;;;;23.15;58.71;101634.22;5007880;28;45791;-82
2022/07/18 03:32:48;;;;;;;;;;;;;;;;;;;;;
2022/07/18 03:35:17;;;;;;;;;18.00;16.67;;;;;23.04;58.86;101613.66;5012520;28;74537;-82
2022/07/18 03:37:47;;;;;;;;;18.00;17.33;;;;;22.96;59.42;101606.63;5011115;28;45753;-81
2022/07/18 03:40:30;;;;;;;;;12.33;10.33;;;;;22.87;59.09;101599.88;5010126;28;45546;-82
2022/07/18 03:43:02;;;;;;;;;16.33;13.67;;;;;22.87;59.84;101602.69;5009967;28;45871;-82
2022/07/18 03:45:48;;;;;;;;;20.00;18.00;;;;;22.99;61.14;101628.47;5002203;28;46045;-81
2022/07/18 03:48:46;;;;;;;;;21.00;18.00;;;;;22.70;61.12;101581.31;5010045;28;45619;-82
2022/07/18 03:51:16;;;;;;;;;18.67;16.33;;;;;22.45;61.62;101556.84;5012889;28;45478;-82
2022/07/18 03:54:10;;;;;;;;;12.67;11.33;;;;;22.89;61.88;101639.63;5004251;28;45312;-82
2022/07/18 03:56:45;;;;;;;;;18.67;16.33;;;;;22.70;62.57;101608.47;5007664;28;45458;-85
2022/07/18 03:59:24;;;;;;;;;16.67;12.67;;;;;22.52;62.72;101588.19;5005385;28;45664;-83
2022/07/18 04:02:02;;;;;;;;;17.00;15.33;;;;;22.79;62.36;101642.34;5019239;28;45886;-86
2022/07/18 04:04:43;;;;;;;;;16.67;13.00;;;;;22.69;62.40;101627.16;5019401;28;45501;-82
2022/07/18 04:07:21;;;;;;;;;22.33;16.33;;;;;22.68;62.26;101627.44;5012773;28;46340;-83
2022/07/18 04:09:50;;;;;;;;;16.67;16.67;;;;;22.78;62.06;101643.47;5014618;28;45566;-85
2022/07/18 04:12:24;;;;;;;;;26.00;16.33;;;;;22.78;61.89;101640.66;5008558;28;45790;-83
2022/07/18 04:14:53;;;;;;;;;20.00;18.33;;;;;22.52;62.58;101599.38;5033993;28;46518;-86
2022/07/18 04:17:29;;;;;;;;;15.00;9.67;;;;;22.53;62.30;101595.50;5012716;28;46707;-82
2022/07/18 04:20:06;;;;;;;;;21.00;16.00;;;;;22.49;61.61;101583.16;5013610;28;45733;-83
2022/07/18 04:23:13;;;;;;;;;;;;;;;;;;;;;
2022/07/18 04:28:56;;;;;;;;;16.00;16.00;;;;;22.53;58.82;101535.91;5017618;28;45893;-83
2022/07/18 04:31:30;;;;;;;;;11.00;10.00;;;;;23.05;57.63;101609.78;5014020;28;46112;-82
2022/07/18 04:33:59;;;;;;;;;15.00;14.33;;;;;23.18;56.75;101608.47;5033795;28;45438;-85
2022/07/18 04:36:50;;;;;;;;;20.00;16.00;;;;;23.38;56.05;101605.78;5040717;28;45718;-86
2022/07/18 04:39:53;;;;;;;;;;;;;;;;;;;;;
2022/07/18 04:42:36;;;;;;;;;13.67;12.33;;;;;23.70;54.08;101595.47;5038349;28;73606;-87
2022/07/18 04:45:23;;;;;;;;;12.00;10.00;;;;;23.95;53.26;101600.31;5041461;28;45607;-83
2022/07/18 04:47:50;;;;;;;;;12.67;12.33;;;;;23.76;52.76;101530.78;5023565;28;46125;-84
2022/07/18 04:50:52;;;;;;;;;12.00;10.00;;;;;24.05;51.77;101533.06;5039443;28;46365;-82
2022/07/18 04:53:19;;;;;;;;;14.00;11.67;;;;;24.39;50.75;101518.44;4964448;28;45555;-76
2022/07/18 04:55:45;;;;;;;;;16.00;13.33;;;;;24.92;49.74;101556.47;5018691;28;45773;-78
2022/07/18 04:58:10;;;;;;;;;10.00;10.00;;;;;25.41;49.45;101581.00;5024861;28;45727;-76
2022/07/18 05:00:35;;;;;;;;;14.33;13.00;;;;;25.78;47.82;101574.03;5018035;28;45875;-78
2022/07/18 05:03:02;;;;;;;;;11.33;10.00;;;;;26.05;46.97;101565.13;5029033;28;45440;-78
2022/07/18 05:05:28;;;;;;;;;11.67;11.67;;;;;26.46;45.63;101566.72;5018839;28;45427;-76
2022/07/18 05:07:54;;;;;;;;;17.00;12.33;;;;;26.86;44.45;101569.44;5016427;28;45685;-75
2022/07/18 05:10:21;;;;;;;;;14.33;12.33;;;;;27.20;43.99;101554.34;5014397;28;47775;-75
2022/07/18 05:12:51;;;;;;;;;14.67;13.33;;;;;27.41;44.22;101552.13;5025240;28;45824;-78
2022/07/18 05:15:20;;;;;;;;;11.67;8.33;;;;;27.90;43.00;101545.16;5009947;28;45387;-75
2022/07/18 05:17:46;;;;;;;;;13.33;13.00;;;;;28.44;42.97;101545.66;5015295;28;46121;-75
2022/07/18 05:20:17;;;;;;;;;16.67;14.33;;;;;28.94;40.75;101547.81;5013707;28;48270;-83
2022/07/18 05:22:43;;;;;;;;;12.33;12.33;;;;;29.43;38.45;101547.34;5000775;28;45745;-75
2022/07/18 05:25:10;;;;;;;;;13.33;12.00;;;;;29.93;37.29;101567.13;5015196;28;45922;-75
2022/07/18 05:27:36;;;;;;;;;9.33;7.67;;;;;30.17;36.47;101565.97;5020562;28;45960;-77
2022/07/18 05:30:03;;;;;;;;;17.67;15.33;;;;;30.56;35.38;101589.88;5001143;28;47279;-77
2022/07/18 05:32:29;;;;;;;;;19.67;14.67;;;;;30.74;35.03;101576.63;5020465;28;45557;-76
2022/07/18 05:34:55;;;;;;;;;9.00;8.67;;;;;31.00;34.34;101599.41;5010185;28;45517;-77
2022/07/18 05:37:20;;;;;;;;;11.33;11.33;;;;;31.28;34.15;101605.66;5018327;28;46109;-77
2022/07/18 05:39:46;;;;;;;;;9.33;9.33;;;;;31.50;33.61;101601.06;5015053;28;45812;-77
2022/07/18 05:42:11;;;;;;;;;11.33;10.33;;;;;31.80;32.31;101604.94;5018832;28;45683;-78
2022/07/18 05:44:37;;;;;;;;;15.00;12.33;;;;;31.81;32.04;101586.75;5008121;28;45846;-76
2022/07/18 05:47:02;;;;;;;;;13.67;11.00;;;;;31.98;31.95;101570.91;5022417;28;45720;-77
2022/07/18 05:49:28;;;;;;;;;9.33;8.00;;;;;32.50;31.10;101607.75;5003713;28;45825;-77
2022/07/18 05:51:53;;;;;;;;;14.33;12.33;;;;;32.77;30.67;101608.53;5025097;28;44769;-82
2022/07/18 05:54:19;;;;;;;;;10.33;10.33;;;;;33.21;29.96;101608.34;5018448;28;45388;-80
2022/07/18 05:56:49;;;;;;;;;11.00;9.67;;;;;33.54;29.03;101614.13;5002845;28;45907;-79
2022/07/18 05:59:16;;;;;;;;;12.00;8.33;;;;;33.75;28.75;101599.13;5025148;28;45485;-80
2022/07/18 06:01:43;;;;;;;;;8.33;8.33;;;;;34.00;28.15;101579.31;5018982;28;45244;-81
2022/07/18 06:04:20;;;;;;;;;8.00;8.00;;;;;34.29;27.69;101582.06;5013270;28;45443;-86
2022/07/18 06:06:48;;;;;;;;;9.33;8.00;;;;;34.71;27.46;101571.72;5015765;28;45460;-82
2022/07/18 06:09:13;;;;;;;;;10.00;7.33;;;;;35.27;26.42;101580.56;5010031;28;47306;-82
2022/07/18 06:11:40;;;;;;;;;7.67;7.67;;;;;35.79;25.44;101590.31;5003546;28;45903;-79
2022/07/18 06:14:05;;;;;;;;;6.00;6.00;;;;;36.13;25.50;101587.22;5024207;28;45419;-79
2022/07/18 06:16:31;;;;;;;;;9.00;8.00;;;;;36.40;24.65;101580.66;5024200;28;45535;-80
2022/07/18 06:18:58;;;;;;;;;4.00;3.00;;;;;36.81;24.32;101594.00;5026827;28;45502;-80
2022/07/18 06:21:27;;;;;;;;;7.67;7.67;;;;;37.11;24.03;101597.19;5023452;28;45627;-77
2022/07/18 06:23:53;;;;;;;;;8.00;7.33;;;;;37.47;23.84;101580.06;5026865;28;45564;-80
2022/07/18 06:26:18;;;;;;;;;7.00;7.00;;;;;37.88;23.41;101600.63;5016557;28;46490;-81
2022/07/18 06:28:44;;;;;;;;;6.67;5.67;;;;;38.15;23.11;101590.94;5029788;28;45739;-79
2022/07/18 06:31:11;;;;;;;;;6.00;5.00;;;;;38.52;23.12;101591.66;5017386;28;45876;-81
2022/07/18 06:33:37;;;;;;;;;11.00;9.67;;;;;38.82;22.19;101586.91;5021167;28;45470;-80
2022/07/18 06:36:02;;;;;;;;;6.67;6.67;;;;;39.23;22.16;101597.84;5018916;28;46006;-79
2022/07/18 06:38:28;;;;;;;;;8.00;7.00;;;;;39.38;21.41;101591.09;5005001;28;45667;-81
2022/07/18 06:40:53;;;;;;;;;7.00;5.00;;;;;39.87;20.42;101608.59;5029805;28;45825;-80
2022/07/18 06:43:19;;;;;;;;;5.33;5.33;;;;;40.13;20.54;101598.25;5015362;28;45494;-80
2022/07/18 06:45:50;;;;;;;;;6.00;4.33;;;;;40.41;19.96;101584.19;5013703;28;46572;-80
2022/07/18 06:48:21;;;;;;;;;6.67;6.00;;;;;40.67;20.02;101595.97;5001162;28;47956;-80
2022/07/18 06:50:47;;;;;;;;;7.00;6.00;;;;;40.76;19.84;101571.38;5012370;28;45732;-78
2022/07/18 06:53:12;;;;;;;;;6.67;5.00;;;;;41.00;19.25;101585.59;5034402;28;46002;-80
2022/07/18 06:55:37;;;;;;;;;4.67;4.33;;;;;41.08;19.39;101587.28;5027285;28;45980;-81
2022/07/18 06:58:03;;;;;;;;;9.33;7.00;;;;;41.55;19.26;101594.19;5004997;28;47423;-79
2022/07/18 07:00:29;;;;;;;;;5.67;5.00;;;;;42.04;18.87;101605.50;5020258;28;45529;-81
2022/07/18 07:02:54;;;;;;;;;6.00;5.00;;;;;42.50;18.51;101604.81;5011499;28;46071;-80
2022/07/18 07:05:21;;;;;;;;;5.00;5.00;;;;;42.91;17.99;101604.47;5031750;28;45537;-80
2022/07/18 07:07:48;;;;;;;;;5.00;5.00;;;;;43.36;17.80;101596.19;5026130;28;46825;-79
2022/07/18 07:10:17;;;;;;;;;8.00;6.67;;;;;43.81;17.60;101603.50;5027657;28;45880;-83
2022/07/18 07:13:04;;;;;;;;;2.67;1.00;;;;;44.06;17.49;101604.22;5004445;28;45568;-80
2022/07/18 07:15:30;;;;;;;;;7.00;6.00;;;;;44.95;16.80;101599.03;5026487;28;45713;-80
2022/07/18 07:17:56;;;;;;;;;7.00;5.67;;;;;45.68;16.23;101595.41;4996272;28;46933;-79
2022/07/18 07:20:21;;;;;;;;;7.00;7.00;;;;;45.92;15.85;101587.66;5015303;28;45913;-79
2022/07/18 07:22:48;;;;;;;;;6.33;5.00;;;;;45.89;15.98;101595.16;5021719;28;45317;-83
2022/07/18 07:25:15;;;;;;;;;5.67;5.67;;;;;46.25;15.40;101605.44;5026737;28;45486;-81
2022/07/18 07:27:42;;;;;;;;;6.00;6.00;;;;;46.76;15.04;101593.88;5022043;28;46560;-80
2022/07/18 07:30:08;;;;;;;;;7.00;7.00;;;;;47.07;14.93;101596.66;5004624;28;45848;-80
2022/07/18 07:32:35;;;;;;;;;8.00;6.33;;;;;47.53;14.99;101589.16;5026144;28;45361;-79
2022/07/18 07:35:01;;;;;;;;;4.00;3.00;;;;;47.98;14.08;101590.69;5020887;28;45738;-79
2022/07/18 07:37:27;;;;;;;;;7.67;5.67;;;;;48.52;14.25;101578.63;5019483;28;46371;-80
2022/07/18 07:39:52;;;;;;;;;8.00;7.00;;;;;48.80;14.31;101578.34;5028209;28;45431;-79
2022/07/18 07:42:18;;;;;;;;;6.00;6.00;;;;;49.23;13.65;101569.28;5022320;28;45855;-79
2022/07/18 07:44:43;;;;;;;;;6.00;6.00;;;;;49.56;13.71;101563.34;5025809;28;45764;-81
2022/07/18 07:47:08;;;;;;;;;6.00;6.00;;;;;49.69;13.02;101568.38;5006766;28;47380;-80
2022/07/18 07:49:34;;;;;;;;;8.00;6.00;;;;;50.08;13.38;101563.41;5015284;28;45572;-80
2022/07/18 07:52:00;;;;;;;;;5.00;4.00;;;;;50.54;12.95;101552.31;5023050;28;45785;-79
2022/07/18 07:54:26;;;;;;;;;7.33;7.33;;;;;51.04;12.75;101562.25;5025351;28;45482;-79
2022/07/18 07:56:51;;;;;;;;;8.00;6.67;;;;;50.87;12.07;101558.66;5020283;28;45878;-79
2022/07/18 07:59:17;;;;;;;;;6.67;5.33;;;;;50.92;12.24;101566.03;5012702;28;45496;-80
2022/07/18 08:01:43;;;;;;;;;7.00;5.00;;;;;51.05;12.02;101560.13;5007967;28;45815;-80
2022/07/18 08:04:08;;;;;;;;;5.00;4.00;;;;;51.14;12.36;101565.25;5023946;28;45631;-80
2022/07/18 08:06:33;;;;;;;;;7.33;6.00;;;;;50.91;11.94;101555.63;5022093;28;45887;-80
2022/07/18 08:08:59;;;;;;;;;7.00;5.00;;;;;51.17;12.38;101561.38;5022300;28;45606;-80
2022/07/18 08:11:24;;;;;;;;;6.00;6.00;;;;;51.24;12.19;101560.31;4998145;28;45714;-80
2022/07/18 08:13:49;;;;;;;;;5.00;5.00;;;;;51.13;12.54;101549.84;5015119;28;45454;-79
2022/07/18 08:16:15;;;;;;;;;6.00;6.00;;;;;51.20;12.19;101531.19;5010668;28;46714;-80
2022/07/18 08:18:40;;;;;;;;;9.67;6.67;;;;;51.52;11.76;101549.63;5021111;28;45455;-81
2022/07/18 08:21:06;;;;;;;;;9.67;9.67;;;;;51.67;11.74;101547.81;5025606;28;47107;-82
2022/07/18 08:23:31;;;;;;;;;7.00;7.00;;;;;51.76;11.83;101540.34;5000475;28;45840;-82
2022/07/18 08:25:57;;;;;;;;;7.00;7.00;;;;;52.06;11.25;101542.47;5016049;28;46533;-81
2022/07/18 08:28:24;;;;;;;;;9.67;8.67;;;;;52.38;11.43;101548.28;5026059;28;45456;-80
2022/07/18 08:30:49;;;;;;;;;7.00;7.00;;;;;52.31;11.56;101543.50;5012496;28;45885;-81
2022/07/18 08:33:14;;;;;;;;;6.00;6.00;;;;;52.80;10.66;101541.06;5003816;28;45770;-80
2022/07/18 08:35:40;;;;;;;;;7.00;5.00;;;;;53.22;10.94;101549.19;5007087;28;47034;-80
2022/07/18 08:38:06;;;;;;;;;6.67;6.00;;;;;53.22;10.64;101552.94;5026127;28;45757;-81
2022/07/18 08:40:31;;;;;;;;;8.00;8.00;;;;;53.53;10.39;101548.19;5022550;28;45453;-79
2022/07/18 08:42:57;;;;;;;;;5.00;5.00;;;;;54.08;10.93;101553.91;5003254;28;46005;-79
2022/07/18 08:45:25;;;;;;;;;6.00;4.33;;;;;54.37;9.76;101536.97;5008473;28;47659;-78
2022/07/18 08:47:51;;;;;;;;;5.67;5.67;;;;;54.73;9.76;101544.72;5017570;28;45767;-75
2022/07/18 08:50:18;;;;;;;;;8.33;6.67;;;;;55.20;9.65;101542.19;5020002;28;45934;-79
2022/07/18 08:52:44;;;;;;;;;6.00;5.67;;;;;55.71;9.88;101558.69;5023986;28;45763;-79
2022/07/18 08:55:11;;;;;;;;;7.00;6.00;;;;;56.11;9.35;101553.44;5021601;28;45877;-79
2022/07/18 08:57:36;;;;;;;;;6.00;6.00;;;;;55.97;8.93;101530.72;5009243;28;45663;-78
2022/07/18 09:00:07;;;;;;;;;7.00;5.00;;;;;56.22;8.83;101550.66;5018853;28;45972;-77
2022/07/18 09:02:32;;;;;;;;;4.67;4.00;;;;;56.11;8.92;101546.75;5019938;28;45775;-75
2022/07/18 09:05:01;;;;;;;;;6.00;6.00;;;;;56.42;9.19;101552.03;4998546;28;47047;-76
2022/07/18 09:07:34;;;;;;;;;4.33;4.33;;;;;56.30;8.78;101547.28;5009957;28;46035;-76
2022/07/18 09:10:02;;;;;;;;;5.00;5.00;;;;;55.53;8.95;101542.03;5019664;28;45845;-77
2022/07/18 09:12:33;;;;;;;;;4.67;4.67;;;;;55.35;8.97;101548.09;5008521;28;46062;-77
2022/07/18 09:15:06;;;;;;;;;6.67;6.67;;;;;55.34;9.26;101538.47;5015890;28;46151;-78
2022/07/18 09:17:34;;;;;;;;;16.33;14.67;;;;;54.93;9.30;101537.38;4995001;28;45543;-77
2022/07/18 09:20:16;;;;;;;;;15.33;15.33;;;;;55.13;9.05;101540.47;5017940;28;45807;-79
2022/07/18 09:22:47;;;;;;;;;11.67;11.67;;;;;55.63;8.81;101527.22;5026922;28;46582;-79
2022/07/18 09:25:15;;;;;;;;;12.67;12.67;;;;;55.13;8.96;101508.13;5006857;28;47719;-77
2022/07/18 09:27:48;;;;;;;;;5.00;5.00;;;;;55.73;9.06;101549.34;5020196;28;45709;-78
2022/07/18 09:30:20;;;;;;;;;8.00;8.00;;;;;55.47;8.48;101513.81;5008393;28;45955;-77
2022/07/18 09:32:53;;;;;;;;;8.33;7.00;;;;;56.14;8.66;101543.56;5012969;28;46086;-77
2022/07/18 09:35:26;;;;;;;;;6.00;6.00;;;;;56.15;8.19;101533.41;5014379;28;46266;-77
2022/07/18 09:38:09;;;;;;;;;4.67;4.67;;;;;55.87;8.26;101544.75;5018530;28;45686;-78
2022/07/18 09:40:41;;;;;;;;;6.33;6.33;;;;;56.05;8.42;101526.03;5014689;28;45537;-76
2022/07/18 09:43:08;;;;;;;;;4.67;4.67;;;;;56.49;8.42;101521.31;5004974;28;46281;-77
2022/07/18 09:45:42;;;;;;;;;5.00;5.00;;;;;56.34;8.32;101542.00;4993079;28;45618;-77
2022/07/18 09:48:08;;;;;;;;;4.33;4.33;;;;;56.49;8.69;101542.75;5020198;28;46089;-77
2022/07/18 09:51:01;;;;;;;;;4.67;3.67;;;;;56.57;8.73;101535.13;5012560;28;45476;-76
2022/07/18 09:53:37;;;;;;;;;3.67;3.67;;;;;56.70;7.78;101542.75;5024273;28;46026;-77
2022/07/18 09:56:08;;;;;;;;;4.67;4.00;;;;;56.38;8.39;101554.38;5012972;28;46388;-77
2022/07/18 09:58:39;;;;;;;;;5.33;3.67;;;;;55.79;8.39;101532.59;5035842;28;45858;-77
2022/07/18 10:01:09;;;;;;;;;4.00;4.00;;;;;55.76;8.78;101536.56;5007745;28;45807;-82
2022/07/18 10:03:39;;;;;;;;;3.00;3.00;;;;;55.94;8.31;101528.81;5036741;28;45637;-77
2022/07/18 10:06:04;;;;;;;;;5.00;5.00;;;;;55.84;8.65;101522.22;5012553;28;45942;-76
2022/07/18 10:08:32;;;;;;;;;3.00;3.00;;;;;56.23;8.73;101527.91;5012799;28;45651;-76
2022/07/18 10:11:00;;;;;;;;;6.00;4.67;;;;;56.01;8.13;101507.78;5012023;28;45635;-78
2022/07/18 10:13:28;;;;;;;;;2.00;2.00;;;;;56.29;8.45;101522.94;5023093;28;45901;-79
2022/07/18 10:15:53;;;;;;;;;3.00;3.00;;;;;56.14;8.30;101520.00;4994445;28;47179;-76
2022/07/18 10:18:24;;;;;;;;;4.33;3.33;;;;;56.02;8.17;101504.31;5022341;28;46010;-76
2022/07/18 10:20:59;;;;;;;;;5.00;5.00;;;;;56.07;8.41;101508.66;5029503;28;45414;-78
2022/07/18 10:23:33;;;;;;;;;5.00;3.67;;;;;55.82;8.50;101519.78;5013886;28;45599;-79
2022/07/18 10:26:19;;;;;;;;;3.33;3.33;;;;;55.82;9.05;101505.06;5027591;28;45770;-80
2022/07/18 10:29:00;;;;;;;;;4.33;3.67;;;;;56.43;8.38;101500.59;5021094;28;45616;-77
2022/07/18 10:31:26;;;;;;;;;3.67;3.67;;;;;56.44;8.39;101496.34;5021175;28;45933;-80
2022/07/18 10:33:54;;;;;;;;;4.33;4.00;;;;;56.40;8.30;101504.59;5013266;28;45830;-80
2022/07/18 10:36:23;;;;;;;;;4.00;4.00;;;;;56.29;8.31;101504.47;5015143;28;45788;-82
2022/07/18 10:39:23;;;;;;;;;3.67;3.67;;;;;55.76;8.52;101494.53;5006205;28;45897;-79
2022/07/18 10:41:52;;;;;;;;;3.00;3.00;;;;;55.25;8.77;101500.31;5017301;28;45975;-80
2022/07/18 10:44:20;;;;;;;;;3.67;3.67;;;;;54.68;8.66;101502.16;5011661;28;46833;-82
2022/07/18 10:47:08;;;;;;;;;6.33;6.33;;;;;54.22;9.75;101492.84;5019065;28;45843;-80
2022/07/18 10:49:49;;;;;;;;;5.00;5.00;;;;;53.92;9.19;101496.38;5025684;28;45474;-80
2022/07/18 10:52:33;;;;;;;;;4.00;4.00;;;;;53.97;9.22;101486.88;5004850;28;45777;-79
2022/07/18 10:55:05;;;;;;;;;6.67;6.67;;;;;53.41;9.56;101486.31;5011992;28;45773;-78
2022/07/18 10:57:38;;;;;;;;;6.00;6.00;;;;;52.58;10.22;101487.16;5017178;28;47343;-77
2022/07/18 11:00:13;;;;;;;;;4.00;4.00;;;;;52.50;9.91;101485.03;5022078;28;45756;-79
2022/07/18 11:02:43;;;;;;;;;5.33;5.33;;;;;52.49;10.17;101486.31;5021780;28;45542;-78
2022/07/18 11:05:23;;;;;;;;;6.00;6.00;;;;;52.52;10.30;101485.34;5031575;28;45647;-79
2022/07/18 11:08:04;;;;;;;;;5.00;5.00;;;;;52.82;10.46;101489.44;5019139;28;45802;-80
2022/07/18 11:11:04;;;;;;;;;7.67;7.00;;;;;52.85;10.46;101482.59;4994283;28;45840;-81
2022/07/18 11:13:36;;;;;;;;;8.67;7.00;;;;;53.00;9.91;101482.78;5028514;28;45866;-79
2022/07/18 11:16:18;;;;;;;;;7.00;7.00;;;;;51.95;10.13;101480.63;5019329;28;45692;-81
2022/07/18 11:18:44;;;;;;;;;5.00;5.00;;;;;51.41;10.59;101488.66;5019524;28;45789;-81
2022/07/18 11:21:18;;;;;;;;;5.67;5.67;;;;;50.89;11.09;101479.34;5013799;28;45751;-79
2022/07/18 11:23:47;;;;;;;;;4.00;3.00;;;;;50.96;10.72;101479.06;5025514;28;45905;-78
2022/07/18 11:26:17;;;;;;;;;5.00;5.00;;;;;50.59;10.37;101481.66;5015961;28;45692;-77
2022/07/18 11:28:43;;;;;;;;;5.67;5.67;;;;;50.14;11.49;101471.09;5028759;28;45863;-76
2022/07/18 11:31:11;;;;;;;;;6.67;6.00;;;;;49.56;11.53;101466.31;5015061;28;45789;-77
2022/07/18 11:33:44;;;;;;;;;6.67;6.67;;;;;48.38;11.64;101462.56;5015065;28;45477;-76
2022/07/18 11:36:11;;;;;;;;;6.00;5.00;;;;;47.42;12.43;101449.88;5025585;28;47016;-77
2022/07/18 11:38:45;;;;;;;;;6.00;5.00;;;;;46.68;12.70;101477.06;5024536;28;47110;-79
2022/07/18 11:41:11;;;;;;;;;6.33;6.33;;;;;46.11;12.63;101473.06;5007922;28;46054;-78
2022/07/18 11:43:36;;;;;;;;;6.00;6.00;;;;;45.40;13.39;101467.03;5022118;28;45824;-80
2022/07/18 11:46:07;;;;;;;;;6.00;6.00;;;;;44.65;13.76;101446.38;5022910;28;45540;-79
2022/07/18 11:48:34;;;;;;;;;7.00;5.00;;;;;44.06;13.78;101458.81;5004305;28;46597;-79